地図

経路データ

SID SEASON NUMBER BASIN SUBBASIN NAME ISO_TIME NATURE LAT LON WMO_WIND WMO_PRES WMO_AGENCY TRACK_TYPE DIST2LAND LANDFALL IFLAG USA_AGENCY USA_ATCF_ID USA_LAT USA_LON USA_RECORD USA_STATUS USA_WIND USA_PRES USA_SSHS USA_R34_NE USA_R34_SE USA_R34_SW USA_R34_NW USA_R50_NE USA_R50_SE USA_R50_SW USA_R50_NW USA_R64_NE USA_R64_SE USA_R64_SW USA_R64_NW USA_POCI USA_ROCI USA_RMW USA_EYE TOKYO_LAT TOKYO_LON TOKYO_GRADE TOKYO_WIND TOKYO_PRES TOKYO_R50_DIR TOKYO_R50_LONG TOKYO_R50_SHORT TOKYO_R30_DIR TOKYO_R30_LONG TOKYO_R30_SHORT TOKYO_LAND CMA_LAT CMA_LON CMA_CAT CMA_WIND CMA_PRES HKO_LAT HKO_LON HKO_CAT HKO_WIND HKO_PRES NEWDELHI_LAT NEWDELHI_LON NEWDELHI_GRADE NEWDELHI_WIND NEWDELHI_PRES NEWDELHI_CI NEWDELHI_DP NEWDELHI_POCI REUNION_LAT REUNION_LON REUNION_TYPE REUNION_WIND REUNION_PRES REUNION_TNUM REUNION_CI REUNION_RMW REUNION_R34_NE REUNION_R34_SE REUNION_R34_SW REUNION_R34_NW REUNION_R50_NE REUNION_R50_SE REUNION_R50_SW REUNION_R50_NW REUNION_R64_NE REUNION_R64_SE REUNION_R64_SW REUNION_R64_NW BOM_LAT BOM_LON BOM_TYPE BOM_WIND BOM_PRES BOM_TNUM BOM_CI BOM_RMW BOM_R34_NE BOM_R34_SE BOM_R34_SW BOM_R34_NW BOM_R50_NE BOM_R50_SE BOM_R50_SW BOM_R50_NW BOM_R64_NE BOM_R64_SE BOM_R64_SW BOM_R64_NW BOM_ROCI BOM_POCI BOM_EYE BOM_POS_METHOD BOM_PRES_METHOD NADI_LAT NADI_LON NADI_CAT NADI_WIND NADI_PRES WELLINGTON_LAT WELLINGTON_LON WELLINGTON_WIND WELLINGTON_PRES DS824_LAT DS824_LON DS824_STAGE DS824_WIND DS824_PRES TD9636_LAT TD9636_LON TD9636_STAGE TD9636_WIND TD9636_PRES TD9635_LAT TD9635_LON TD9635_WIND TD9635_PRES TD9635_ROCI NEUMANN_LAT NEUMANN_LON NEUMANN_CLASS NEUMANN_WIND NEUMANN_PRES MLC_LAT MLC_LON MLC_CLASS MLC_WIND MLC_PRES USA_GUST BOM_GUST BOM_GUST_PER REUNION_GUST REUNION_GUST_PER USA_SEAHGT USA_SEARAD_NE USA_SEARAD_SE USA_SEARAD_SW USA_SEARAD_NW STORM_SPEED STORM_DIR
2013130N04093 2013 20 NI BB MAHASEN:VIYARU 2013-05-09 18:00:00 NR 4.40000 93.0000 main 264 233 O_____________ jtwc_io IO012013 4.40000 93.0000 DB 20 1007 -3 1008 140 40 7 86
2013130N04093 2013 20 NI BB MAHASEN:VIYARU 2013-05-09 21:00:00 NR 4.42254 93.3500 main 233 208 P_____________ IO012013 4.42254 93.3500 DB 22 1005 -3 1006 140 40 5 79
2013130N04093 2013 20 NI BB MAHASEN:VIYARU 2013-05-10 00:00:00 TS 4.50000 93.5000 main 208 204 O_____________ jtwc_io IO012013 4.50000 93.5000 TD 25 1004 -1 1005 140 40 3 0
2013130N04093 2013 20 NI BB MAHASEN:VIYARU 2013-05-10 03:00:00 TS 4.67002 93.3250 main 221 221 P_____________ IO012013 4.67002 93.3250 TD 30 1000 -1 1005 145 40 6 309
2013130N04093 2013 20 NI BB MAHASEN:VIYARU 2013-05-10 06:00:00 TS 4.90000 93.0000 main 247 247 O_____________ jtwc_io IO012013 4.90000 93.0000 TS 35 996 0 1006 150 40 8 301
2013130N04093 2013 20 NI BB MAHASEN:VIYARU 2013-05-10 09:00:00 TS 5.09598 92.6119 25 1004 newdelhi main 289 289 P___O_________ IO012013 5.11997 92.7649 TS 35 996 0 1006 150 37 5.00000 92.0000 D 25 1004 1.50000 3 9 309
2013130N04093 2013 20 NI BB MAHASEN:VIYARU 2013-05-10 12:00:00 TS 5.43333 92.3333 30 1002 newdelhi main 321 321 O___O_________ jtwc_io IO012013 5.40000 92.5000 TS 35 996 0 1006 150 35 5.50000 92.0000 DD 30 1002 2.00000 5 9 319
2013130N04093 2013 20 NI BB MAHASEN:VIYARU 2013-05-10 15:00:00 TS 5.78334 92.0176 main 355 355 P___P_________ IO012013 5.76998 92.1800 TS 35 996 0 1006 150 35 5.80116 91.8011 DD 30 1001 5 10 314
2013130N04093 2013 20 NI BB MAHASEN:VIYARU 2013-05-10 18:00:00 TS 6.10000 91.6500 30 1000 newdelhi main 391 391 O___O_________ jtwc_io IO012013 6.20000 91.8000 TS 35 996 0 60 50 50 60 1006 150 35 6.00000 91.5000 DD 30 1000 2.00000 5 9 313
2013130N04093 2013 20 NI BB MAHASEN:VIYARU 2013-05-10 21:00:00 TS 6.42062 91.3405 main 440 440 P___P_________ IO012013 6.64245 91.3799 TS 37 994 0 65 55 60 65 1004 155 32 6.19879 91.3010 DD 30 999 5 10 315
2013130N04093 2013 20 NI BB MAHASEN:VIYARU 2013-05-11 00:00:00 TS 6.80000 90.9500 30 998 newdelhi main 483 483 O___O_________ jtwc_io IO012013 7.10000 90.9000 TS 40 993 0 70 60 70 70 1003 160 30 6.50000 91.0000 DD 30 998 2.00000 6 13 314
2013130N04093 2013 20 NI BB MAHASEN:VIYARU 2013-05-11 03:00:00 TS 7.28627 90.4250 35 996 newdelhi main 564 564 P___O_________ IO012013 7.57253 90.3501 TS 42 991 0 70 60 70 70 1003 160 27 7.00000 90.5000 CS 35 996 2.50000 8 12 320
2013130N04093 2013 20 NI BB MAHASEN:VIYARU 2013-05-11 06:00:00 TS 7.75000 90.1500 35 996 newdelhi main 605 600 O___O_________ jtwc_io IO012013 8.00000 89.8000 TS 45 989 0 70 60 70 70 1004 160 25 7.50000 90.5000 CS 35 996 2.50000 8 10 310
2013130N04093 2013 20 NI BB MAHASEN:VIYARU 2013-05-11 09:00:00 TS 7.91498 89.6562 35 996 newdelhi main 660 660 P___O_________ IO012013 8.32996 89.3124 TS 45 989 0 72 65 70 72 1004 160 22 7.50000 90.0000 CS 35 996 2.50000 8 11 300
2013130N04093 2013 20 NI BB MAHASEN:VIYARU 2013-05-11 12:00:00 TS 8.30000 89.2000 40 994 newdelhi main 728 728 O___O_________ jtwc_io IO012013 8.60000 88.9000 TS 45 989 0 75 70 70 75 1005 160 20 8.00000 89.5000 CS 40 994 2.50000 8 12 312
2013130N04093 2013 20 NI BB MAHASEN:VIYARU 2013-05-11 15:00:00 TS 8.68246 88.7850 40 994 newdelhi main 780 771 P___O_________ IO012013 8.86493 88.5699 TS 45 989 0 75 70 70 75 1005 160 20 8.50000 89.0000 CS 40 994 2.50000 8 9 324
2013130N04093 2013 20 NI BB MAHASEN:VIYARU 2013-05-11 18:00:00 TS 9.05000 88.6500 40 994 newdelhi main 778 740 O___O_________ jtwc_io IO012013 9.10000 88.3000 TS 45 989 0 75 70 70 75 1005 160 20 9.00000 89.0000 CS 40 994 2.50000 8 9 325
2013130N04093 2013 20 NI BB MAHASEN:VIYARU 2013-05-11 21:00:00 TS 9.40374 88.2675 40 994 newdelhi main 743 711 P___O_________ IO012013 9.30748 88.0350 TS 45 989 0 75 70 70 75 1005 167 20 9.50000 88.5000 CS 40 994 2.50000 8 10 313
2013130N04093 2013 20 NI BB MAHASEN:VIYARU 2013-05-12 00:00:00 TS 9.75000 87.9000 40 994 newdelhi main 714 683 O___O_________ jtwc_io IO012013 9.50000 87.8000 TS 45 989 0 75 70 70 75 1005 175 20 10.0000 88.0000 CS 40 994 2.50000 8 8 302
2013130N04093 2013 20 NI BB MAHASEN:VIYARU 2013-05-12 03:00:00 TS 9.84999 87.5462 40 994 newdelhi main 673 673 P___O_________ IO012013 9.69997 87.5925 TS 45 989 0 75 70 70 75 1005 177 20 10.0000 87.5000 CS 40 994 2.50000 8 5 294
2013130N04093 2013 20 NI BB MAHASEN:VIYARU 2013-05-12 06:00:00 TS 9.95000 87.4500 40 994 newdelhi main 682 651 O___O_________ jtwc_io IO012013 9.90000 87.4000 TS 45 989 0 75 70 70 75 1005 180 20 10.0000 87.5000 CS 40 994 2.50000 8 6 315
2013130N04093 2013 20 NI BB MAHASEN:VIYARU 2013-05-12 09:00:00 TS 10.2963 87.0962 40 994 newdelhi main 656 651 P___O_________ IO012013 10.0925 87.1925 TS 45 989 0 75 70 70 75 1004 180 20 10.5000 87.0000 CS 40 994 2.50000 8 6 316
2013130N04093 2013 20 NI BB MAHASEN:VIYARU 2013-05-12 12:00:00 TS 10.4000 87.0000 40 994 newdelhi main 651 626 O___O_________ jtwc_io IO012013 10.3000 87.0000 TS 45 989 0 75 70 70 75 1004 180 20 10.5000 87.0000 CS 40 994 2.50000 8 5 298
2013130N04093 2013 20 NI BB MAHASEN:VIYARU 2013-05-12 15:00:00 TS 10.5175 86.6675 40 994 newdelhi main 626 621 P___O_________ IO012013 10.5350 86.8350 TS 45 989 0 75 70 70 75 1004 180 20 10.5000 86.5000 CS 40 994 2.50000 8 6 322
2013130N04093 2013 20 NI BB MAHASEN:VIYARU 2013-05-12 18:00:00 TS 10.9000 86.6000 40 994 newdelhi main 635 635 O___O_________ jtwc_io IO012013 10.8000 86.7000 TS 45 989 0 75 70 70 75 1004 180 20 11.0000 86.5000 CS 40 994 2.50000 8 5 348
2013130N04093 2013 20 NI BB MAHASEN:VIYARU 2013-05-12 21:00:00 TS 11.0500 86.5500 40 994 newdelhi main 640 630 P___O_________ IO012013 11.1000 86.6000 TS 45 989 0 75 70 70 75 1004 185 20 11.0000 86.5000 CS 40 994 2.50000 8 6 350
2013130N04093 2013 20 NI BB MAHASEN:VIYARU 2013-05-13 00:00:00 TS 11.4500 86.5000 40 994 newdelhi main 658 652 O___O_________ jtwc_io IO012013 11.4000 86.5000 TS 45 989 0 75 70 70 75 1004 190 20 11.5000 86.5000 CS 40 994 2.50000 8 8 352
2013130N04093 2013 20 NI BB MAHASEN:VIYARU 2013-05-13 03:00:00 TS 11.8325 86.4400 40 994 newdelhi main 666 666 P___O_________ IO012013 11.6650 86.3799 TS 45 989 0 75 70 70 75 1004 195 20 12.0000 86.5000 CS 40 994 2.50000 8 5 343
2013130N04093 2013 20 NI BB MAHASEN:VIYARU 2013-05-13 06:00:00 TS 11.9500 86.3500 40 994 newdelhi main 676 633 O___O_________ jtwc_io IO012013 11.9000 86.2000 TS 45 989 0 75 70 70 75 1004 200 20 12.0000 86.5000 CS 40 994 2.50000 8 5 293
2013130N04093 2013 20 NI BB MAHASEN:VIYARU 2013-05-13 09:00:00 TS 12.0388 85.9462 40 994 newdelhi main 622 610 P___O_________ IO012013 12.0776 85.8925 TS 45 989 0 75 70 70 75 1003 205 20 12.0000 86.0000 CS 40 994 2.50000 8 6 290
2013130N04093 2013 20 NI BB MAHASEN:VIYARU 2013-05-13 12:00:00 TS 12.1500 85.8000 40 994 newdelhi main 609 578 O___O_________ jtwc_io IO012013 12.3000 85.6000 TS 45 989 0 75 70 70 75 1003 210 20 12.0000 86.0000 CS 40 994 2.50000 8 6 339
2013130N04093 2013 20 NI BB MAHASEN:VIYARU 2013-05-13 15:00:00 TS 12.5925 85.7275 40 994 newdelhi main 578 547 P___O_________ IO012013 12.6850 85.4550 TS 45 989 0 75 72 70 72 1002 212 25 12.5000 86.0000 CS 40 994 2.50000 8 7 332
2013130N04093 2013 20 NI BB MAHASEN:VIYARU 2013-05-13 18:00:00 TS 12.8000 85.4500 40 994 newdelhi main 547 505 O___O_________ jtwc_io IO012013 13.1000 85.4000 TS 45 989 0 75 75 70 70 1002 215 30 12.5000 85.5000 CS 40 994 2.50000 8 7 335
2013130N04093 2013 20 NI BB MAHASEN:VIYARU 2013-05-13 21:00:00 TS 13.2112 85.4275 40 994 newdelhi main 505 472 P___O_________ IO012013 13.4225 85.3550 TS 45 989 0 70 72 67 62 1001 212 32 13.0000 85.5000 CS 40 994 2.50000 8 8 1
2013130N04093 2013 20 NI BB MAHASEN:VIYARU 2013-05-14 00:00:00 TS 13.6000 85.4500 40 994 newdelhi main 480 472 O___O_________ jtwc_io IO012013 13.7000 85.4000 TS 45 989 0 65 70 65 55 1001 210 35 13.5000 85.5000 CS 40 994 2.50000 8 5 11
2013130N04093 2013 20 NI BB MAHASEN:VIYARU 2013-05-14 03:00:00 TS 13.7288 85.5350 40 994 newdelhi main 472 451 P___O_________ IO012013 13.9575 85.5700 TS 45 989 0 65 70 65 55 1001 210 30 13.5000 85.5000 CS 40 994 2.50000 8 5 21
2013130N04093 2013 20 NI BB MAHASEN:VIYARU 2013-05-14 06:00:00 TS 14.1000 85.6500 40 994 newdelhi main 459 452 O___O_________ jtwc_io IO012013 14.2000 85.8000 TS 45 989 0 65 70 65 55 1001 210 25 14.0000 85.5000 CS 40 994 2.50000 8 5 23
2013130N04093 2013 20 NI BB MAHASEN:VIYARU 2013-05-14 09:00:00 TS 14.2100 85.7463 40 994 newdelhi main 452 452 P___O_________ IO012013 14.4200 85.9927 TS 45 989 0 65 70 65 55 1001 210 25 14.0000 85.5000 CS 40 994 2.50000 8 7 41
2013130N04093 2013 20 NI BB MAHASEN:VIYARU 2013-05-14 12:00:00 TS 14.6000 86.1000 40 994 newdelhi main 456 448 O___O_________ jtwc_io IO012013 14.7000 86.2000 TS 45 989 0 65 70 65 55 1001 210 25 14.5000 86.0000 CS 40 994 2.50000 8 8 37
2013130N04093 2013 20 NI BB MAHASEN:VIYARU 2013-05-14 15:00:00 TS 14.8100 86.2212 40 994 newdelhi main 448 428 P___O_________ IO012013 15.1200 86.4425 TS 45 989 0 65 67 62 55 1001 215 25 14.5000 86.0000 CS 40 994 2.50000 8 9 35
2013130N04093 2013 20 NI BB MAHASEN:VIYARU 2013-05-14 18:00:00 TS 15.3000 86.6000 40 994 newdelhi main 428 401 O___O_________ jtwc_io IO012013 15.6000 86.7000 TS 45 989 0 65 65 60 55 1001 220 25 15.0000 86.5000 CS 40 994 2.50000 8 11 27
2013130N04093 2013 20 NI BB MAHASEN:VIYARU 2013-05-14 21:00:00 TS 15.7712 86.7288 40 994 newdelhi main 393 385 P___O_________ IO012013 16.0425 86.9576 TS 45 989 0 65 65 60 55 1001 212 22 15.5000 86.5000 CS 40 994 2.50000 8 11 27
2013130N04093 2013 20 NI BB MAHASEN:VIYARU 2013-05-15 00:00:00 TS 16.2500 87.1000 40 994 newdelhi main 384 361 O___O_________ jtwc_io IO012013 16.5000 87.2000 TS 45 989 0 65 65 60 55 1002 205 20 16.0000 87.0000 CS 40 994 2.50000 8 11 24
2013130N04093 2013 20 NI BB MAHASEN:VIYARU 2013-05-15 03:00:00 TS 16.7462 87.1889 40 992 newdelhi main 361 334 P___O_________ IO012013 16.9923 87.3779 TS 45 989 0 65 65 60 55 1002 205 20 16.5000 87.0000 CS 40 992 2.50000 8 11 23
2013130N04093 2013 20 NI BB MAHASEN:VIYARU 2013-05-15 06:00:00 TS 17.2500 87.5500 45 990 newdelhi main 327 291 O___O_________ jtwc_io IO012013 17.5000 87.6000 TS 45 989 0 65 65 60 55 1002 205 20 17.0000 87.5000 CS 45 990 3.00000 10 11 28
2013130N04093 2013 20 NI BB MAHASEN:VIYARU 2013-05-15 09:00:00 TS 17.7426 87.7425 45 990 newdelhi main 291 269 P___O_________ IO012013 17.9852 87.9849 TS 45 989 0 65 65 60 55 1002 205 20 17.5000 87.5000 CS 45 990 3.00000 10 12 32
2013130N04093 2013 20 NI BB MAHASEN:VIYARU 2013-05-15 12:00:00 TS 18.2500 88.2000 45 990 newdelhi main 268 260 O___O_________ jtwc_io IO012013 18.5000 88.4000 TS 45 989 0 65 65 60 55 1002 205 20 18.0000 88.0000 CS 45 990 3.00000 10 13 37
2013130N04093 2013 20 NI BB MAHASEN:VIYARU 2013-05-15 15:00:00 TS 18.7999 88.5965 45 990 newdelhi main 260 236 P___O_________ IO012013 19.0997 88.6929 TS 45 989 0 67 67 62 57 1002 205 20 18.5000 88.5000 CS 45 990 3.00000 10 12 25
2013130N04093 2013 20 NI BB MAHASEN:VIYARU 2013-05-15 18:00:00 TS 19.3500 88.7500 45 990 newdelhi main 237 201 O___O_________ jtwc_io IO012013 19.7000 89.0000 TS 45 989 0 70 70 65 60 1002 205 20 19.0000 88.5000 CS 45 990 3.00000 10 65 12 29
2013130N04093 2013 20 NI BB MAHASEN:VIYARU 2013-05-15 21:00:00 TS 19.8312 89.2030 45 990 newdelhi main 201 154 P___O_________ IO012013 20.1624 89.4060 TS 45 989 0 70 70 65 60 1002 205 20 19.5000 89.0000 CS 45 990 3.00000 10 13 42
2013130N04093 2013 20 NI BB MAHASEN:VIYARU 2013-05-16 00:00:00 TS 20.3500 89.7000 45 990 newdelhi main 147 67 O___O_________ jtwc_io IO012013 20.7000 89.9000 TS 45 989 0 70 70 65 60 1002 205 20 20.0000 89.5000 CS 45 990 3.00000 10 17 34
2013130N04093 2013 20 NI BB MAHASEN:VIYARU 2013-05-16 03:00:00 TS 21.2412 90.2278 45 990 newdelhi main 67 0 P___O_________ IO012013 21.4823 90.4555 TS 42 991 0 70 70 65 60 1001 192 20 21.0000 90.0000 CS 45 990 3.00000 10 25 31
2013130N04093 2013 20 NI BB MAHASEN:VIYARU 2013-05-16 06:00:00 TS 22.4571 91.0429 45 990 newdelhi main 10 0 O___O_________ jtwc_io IO012013 22.4000 91.1000 TS 40 993 0 70 70 65 60 1000 180 20 22.5000 91.0000 CS 45 990 3.00000 10 27 36
2013130N04093 2013 20 NI BB MAHASEN:VIYARU 2013-05-16 09:00:00 TS 23.4494 91.9417 40 994 newdelhi main 0 0 P___O_________ IO012013 23.3483 91.8252 TS 37 994 0 70 70 65 60 1000 180 25 23.5000 92.0000 CS 40 994 0.00000 8 21 40
2013130N04093 2013 20 NI BB MAHASEN:VIYARU 2013-05-16 12:00:00 TS 24.0750 92.5250 30 996 newdelhi main 0 0 O___O_________ jtwc_io IO012013 24.3000 92.6000 TS 35 996 0 70 70 65 60 1001 180 30 24.0000 92.5000 DD 30 996 0.00000 6 14 43
2013130N04093 2013 20 NI BB MAHASEN:VIYARU 2013-05-16 15:00:00 NR 24.4681 92.9659 main 0 0 ____P_________ IO012013 TS -1 24.4681 92.9659 DD 27 997 5 13 44
2013130N04093 2013 20 NI BB MAHASEN:VIYARU 2013-05-16 18:00:00 NR 25.0000 93.5000 25 998 newdelhi main 0 ____O_________ 25.0000 93.5000 D 25 998 0.00000 4 14 42

IBTrACS Databaseについて

本データベースは、米国NOAAが公開する1842年以降の世界の熱帯低気圧のベストトラックデータアーカイブInternational Best Track Archive for Climate Stewardship (IBTrACS)を、ウェブで閲覧しやすい形式に変換したものです。

最終更新日:2021-10-08